createdAt,value
2017-10-09T00:00:02.450Z,98.18
2017-10-09T00:01:02.339Z,97.61
2017-10-09T00:02:02.354Z,97.51
2017-10-09T00:03:23.281Z,97.99
2017-10-09T00:04:02.395Z,97.41
2017-10-09T00:05:02.232Z,98.27
2017-10-09T00:06:02.282Z,97.46
2017-10-09T00:07:02.187Z,98.18
2017-10-09T00:08:02.191Z,97.99
2017-10-09T00:09:23.123Z,97.94
2017-10-09T00:10:02.209Z,97.99
2017-10-09T00:11:02.084Z,97.94
2017-10-09T00:12:02.122Z,97.94
2017-10-09T00:13:02.036Z,97.84
2017-10-09T00:14:02.030Z,98.13
2017-10-09T00:15:22.977Z,98.60
2017-10-09T00:16:02.041Z,98.32
2017-10-09T00:17:01.920Z,98.36
2017-10-09T00:18:01.955Z,97.94
2017-10-09T00:19:01.874Z,98.22
2017-10-09T00:20:01.869Z,98.03
2017-10-09T00:21:22.819Z,97.94
2017-10-09T00:22:01.879Z,98.60
2017-10-09T00:23:01.772Z,98.22
2017-10-09T00:24:01.793Z,98.89
2017-10-09T00:25:01.723Z,98.51
2017-10-09T00:26:01.805Z,99.37
2017-10-09T00:27:22.673Z,99.27
2017-10-09T00:28:01.727Z,99.37
2017-10-09T00:29:01.616Z,98.51
2017-10-09T00:30:01.627Z,98.70
2017-10-09T00:31:01.562Z,99.18
2017-10-09T00:32:01.641Z,98.99
2017-10-09T00:33:22.515Z,99.08
2017-10-09T00:34:01.552Z,99.37
2017-10-09T00:35:01.460Z,99.46
2017-10-09T00:36:01.469Z,99.46
2017-10-09T00:37:01.414Z,99.27
2017-10-09T00:38:01.477Z,99.18
2017-10-09T00:39:22.365Z,99.18
2017-10-09T00:40:01.391Z,99.46
2017-10-09T00:41:01.309Z,99.27
2017-10-09T00:42:01.300Z,99.46
2017-10-09T00:43:01.257Z,98.99
2017-10-09T00:44:01.321Z,99.37
2017-10-09T00:45:22.212Z,98.60
2017-10-09T00:46:01.224Z,98.70
2017-10-09T00:47:01.159Z,99.18
2017-10-09T00:48:01.243Z,99.55
2017-10-09T00:49:01.103Z,99.46
2017-10-09T00:50:01.148Z,99.46
2017-10-09T00:51:22.058Z,99.18
2017-10-09T00:52:01.059Z,99.27
2017-10-09T00:53:01.003Z,99.27
2017-10-09T00:54:01.075Z,99.46
2017-10-09T00:55:00.955Z,99.46
2017-10-09T00:56:00.972Z,99.46
2017-10-09T00:57:21.900Z,99.37
2017-10-09T00:58:00.901Z,99.65
2017-10-09T00:59:00.848Z,99.84
2017-10-09T01:00:00.912Z,99.55
2017-10-09T01:01:00.801Z,99.46
2017-10-09T01:02:00.825Z,99.46
2017-10-09T01:03:21.754Z,99.75
2017-10-09T01:04:00.832Z,99.65
2017-10-09T01:05:00.705Z,99.94
2017-10-09T01:06:00.747Z,99.94
2017-10-09T01:07:00.650Z,99.46
2017-10-09T01:08:00.659Z,99.99
2017-10-09T01:09:21.593Z,99.99
2017-10-09T01:10:00.678Z,99.84
2017-10-09T01:11:00.537Z,99.75
2017-10-09T01:12:00.583Z,99.84
2017-10-09T01:13:00.496Z,99.94
2017-10-09T01:14:00.498Z,99.65
2017-10-09T01:15:21.444Z,99.75
2017-10-09T01:16:00.511Z,99.99
2017-10-09T01:17:00.391Z,99.84
2017-10-09T01:18:00.424Z,99.75
2017-10-09T01:19:00.343Z,99.99
2017-10-09T01:20:00.329Z,99.84
2017-10-09T01:21:21.284Z,99.94
2017-10-09T01:22:00.350Z,99.65
2017-10-09T01:23:00.238Z,99.55
2017-10-09T01:24:00.269Z,99.55
2017-10-09T01:25:00.190Z,99.65
2017-10-09T01:26:00.269Z,99.55
2017-10-09T01:27:21.131Z,99.55
2017-10-09T01:28:00.185Z,99.27
2017-10-09T01:29:00.088Z,99.65
2017-10-09T01:30:00.102Z,98.79
2017-10-09T01:31:00.027Z,99.27
2017-10-09T01:32:00.116Z,98.99
2017-10-09T01:33:20.973Z,99.46
2017-10-09T01:34:00.015Z,99.08
2017-10-09T01:34:59.942Z,99.55
2017-10-09T01:35:59.929Z,99.37
2017-10-09T01:36:59.877Z,98.99
2017-10-09T01:37:59.949Z,98.89
2017-10-09T01:39:20.826Z,98.41
2017-10-09T01:39:59.853Z,98.03
2017-10-09T01:40:59.777Z,98.03
2017-10-09T01:41:59.765Z,98.41
2017-10-09T01:42:59.723Z,98.22
2017-10-09T01:43:59.777Z,97.65
2017-10-09T01:45:20.667Z,97.94
2017-10-09T01:45:59.688Z,98.22
2017-10-09T01:46:59.618Z,97.17
2017-10-09T01:47:59.718Z,97.36
2017-10-09T01:48:59.565Z,98.22
2017-10-09T01:49:59.614Z,98.03
2017-10-09T01:51:20.512Z,97.94
2017-10-09T01:51:59.533Z,97.94
2017-10-09T01:52:59.491Z,98.32
2017-10-09T01:53:59.541Z,97.75
2017-10-09T01:54:59.414Z,97.94
2017-10-09T01:55:59.455Z,98.32
2017-10-09T01:57:20.372Z,97.84
2017-10-09T01:57:59.368Z,97.56
2017-10-09T01:58:59.322Z,97.65
2017-10-09T01:59:59.376Z,97.75
2017-10-09T02:00:59.253Z,97.75
2017-10-09T02:01:59.289Z,97.17
2017-10-09T02:03:20.207Z,97.84
2017-10-09T02:03:59.200Z,97.75
2017-10-09T02:04:59.157Z,97.84
2017-10-09T02:05:59.216Z,97.75
2017-10-09T02:06:59.107Z,98.32
2017-10-09T02:07:59.129Z,97.94
2017-10-09T02:09:20.052Z,98.13
2017-10-09T02:09:59.045Z,98.32
2017-10-09T02:10:59.004Z,98.03
2017-10-09T02:11:59.052Z,98.41
2017-10-09T02:12:58.950Z,97.75
2017-10-09T02:13:58.970Z,97.65
2017-10-09T02:15:19.892Z,97.94
2017-10-09T02:15:58.983Z,97.36
2017-10-09T02:16:58.844Z,97.36
2017-10-09T02:17:58.887Z,96.80
2017-10-09T02:18:58.794Z,95.84
2017-10-09T02:19:58.802Z,96.12
2017-10-09T02:21:19.754Z,96.32
2017-10-09T02:21:58.819Z,96.60
2017-10-09T02:22:58.698Z,96.41
2017-10-09T02:23:58.726Z,96.80
2017-10-09T02:24:58.650Z,96.80
2017-10-09T02:25:58.638Z,95.75
2017-10-09T02:27:19.593Z,95.46
2017-10-09T02:27:58.654Z,96.22
2017-10-09T02:28:58.542Z,96.41
2017-10-09T02:29:58.569Z,96.70
2017-10-09T02:30:58.496Z,97.08
2017-10-09T02:31:58.479Z,97.75
2017-10-09T02:33:19.437Z,97.84
2017-10-09T02:33:58.492Z,97.27
2017-10-09T02:34:58.379Z,96.41
2017-10-09T02:35:58.404Z,96.22
2017-10-09T02:36:58.333Z,95.65
2017-10-09T02:37:58.420Z,96.32
2017-10-09T02:39:19.276Z,96.32
2017-10-09T02:39:58.331Z,96.60
2017-10-09T02:40:58.227Z,96.22
2017-10-09T02:41:58.245Z,96.32
2017-10-09T02:42:58.175Z,97.17
2017-10-09T02:43:58.253Z,97.75
2017-10-09T02:45:19.119Z,97.94
2017-10-09T02:45:58.162Z,98.03
2017-10-09T02:46:58.076Z,97.46
2017-10-09T02:47:58.071Z,97.27
2017-10-09T02:48:58.017Z,97.17
2017-10-09T02:49:58.092Z,97.17
2017-10-09T02:51:18.969Z,96.60
2017-10-09T02:51:57.997Z,96.41
2017-10-09T02:52:57.932Z,96.51
2017-10-09T02:53:57.912Z,96.22
2017-10-09T02:54:57.864Z,96.12
2017-10-09T02:55:57.926Z,96.32
2017-10-09T02:57:18.811Z,96.51
2017-10-09T02:57:57.835Z,96.41
2017-10-09T02:58:57.762Z,96.22
2017-10-09T02:59:57.748Z,96.41
2017-10-09T03:00:57.709Z,96.41
2017-10-09T03:01:57.766Z,96.41
2017-10-09T03:03:18.658Z,96.80
2017-10-09T03:03:57.674Z,96.22
2017-10-09T03:04:57.610Z,96.12
2017-10-09T03:05:57.686Z,96.51
2017-10-09T03:06:57.550Z,96.41
2017-10-09T03:07:57.599Z,96.51
2017-10-09T03:09:18.510Z,96.60
2017-10-09T03:09:57.512Z,96.41
2017-10-09T03:10:57.455Z,96.22
2017-10-09T03:11:57.524Z,96.51
2017-10-09T03:12:57.411Z,96.41
2017-10-09T03:13:57.435Z,96.41
2017-10-09T03:15:18.360Z,95.65
2017-10-09T03:15:57.356Z,96.12
2017-10-09T03:16:57.291Z,96.60
2017-10-09T03:17:57.366Z,96.32
2017-10-09T03:18:57.257Z,96.32
2017-10-09T03:19:57.267Z,96.03
2017-10-09T03:21:18.191Z,95.65
2017-10-09T03:21:57.188Z,95.75
2017-10-09T03:22:57.142Z,94.51
2017-10-09T03:23:57.192Z,94.89
2017-10-09T03:24:57.085Z,94.70
2017-10-09T03:25:57.101Z,94.60
2017-10-09T03:27:18.038Z,95.08
2017-10-09T03:27:57.118Z,94.13
2017-10-09T03:28:56.993Z,94.13
2017-10-09T03:29:57.032Z,94.22
2017-10-09T03:30:56.933Z,94.22
2017-10-09T03:31:56.942Z,94.32
2017-10-09T03:33:17.879Z,93.74
2017-10-09T03:33:56.956Z,94.22
2017-10-09T03:34:56.841Z,94.51
2017-10-09T03:35:56.884Z,94.70
2017-10-09T03:36:56.775Z,95.17
2017-10-09T03:37:56.782Z,95.56
2017-10-09T03:39:17.728Z,96.22
2017-10-09T03:39:56.794Z,95.56
2017-10-09T03:40:56.677Z,94.60
2017-10-09T03:41:56.703Z,94.32
2017-10-09T03:42:56.623Z,94.22
2017-10-09T03:43:56.613Z,93.84
2017-10-09T03:45:17.563Z,94.22
2017-10-09T03:45:56.629Z,94.70
2017-10-09T03:46:56.519Z,95.08
2017-10-09T03:47:56.537Z,94.41
2017-10-09T03:48:56.475Z,94.89
2017-10-09T03:49:56.450Z,95.27
2017-10-09T03:51:17.417Z,95.08
2017-10-09T03:51:56.466Z,94.89
2017-10-09T03:52:56.361Z,95.08
2017-10-09T03:53:56.383Z,95.46
2017-10-09T03:54:56.311Z,94.89
2017-10-09T03:55:56.394Z,95.60
2017-10-09T03:57:17.266Z,95.41
2017-10-09T03:57:56.308Z,95.60
2017-10-09T03:58:56.208Z,95.60
2017-10-09T03:59:56.214Z,95.84
2017-10-09T04:00:56.155Z,96.03
2017-10-09T04:01:56.225Z,96.98
2017-10-09T04:03:17.107Z,96.36
2017-10-09T04:03:56.144Z,96.03
2017-10-09T04:04:56.047Z,95.98
2017-10-09T04:05:56.056Z,95.98
2017-10-09T04:06:55.995Z,95.98
2017-10-09T04:07:56.074Z,96.36
2017-10-09T04:09:16.953Z,96.36
2017-10-09T04:09:55.979Z,96.17
2017-10-09T04:10:55.903Z,96.27
2017-10-09T04:11:55.884Z,96.36
2017-10-09T04:12:55.846Z,96.70
2017-10-09T04:13:55.906Z,96.75
2017-10-09T04:15:16.793Z,97.31
2017-10-09T04:15:55.813Z,98.18
2017-10-09T04:16:55.745Z,97.70
2017-10-09T04:17:55.728Z,97.89
2017-10-09T04:18:55.693Z,97.79
2017-10-09T04:19:55.740Z,98.18
2017-10-09T04:21:16.635Z,98.18
2017-10-09T04:21:55.649Z,98.27
2017-10-09T04:22:55.585Z,98.18
2017-10-09T04:23:55.665Z,98.46
2017-10-09T04:24:55.537Z,98.55
2017-10-09T04:25:55.576Z,98.36
2017-10-09T04:27:16.481Z,98.36
2017-10-09T04:27:55.497Z,98.41
2017-10-09T04:28:55.433Z,98.65
2017-10-09T04:29:55.509Z,99.46
2017-10-09T04:30:55.377Z,99.41
2017-10-09T04:31:55.411Z,98.60
2017-10-09T04:33:16.322Z,98.65
2017-10-09T04:33:55.321Z,98.46
2017-10-09T04:34:55.266Z,98.27
2017-10-09T04:35:55.338Z,97.94
2017-10-09T04:36:55.230Z,98.46
2017-10-09T04:37:55.248Z,98.22
2017-10-09T04:39:16.164Z,98.41
2017-10-09T04:39:55.156Z,98.03
2017-10-09T04:40:55.117Z,98.60
2017-10-09T04:41:55.170Z,98.13
2017-10-09T04:42:55.066Z,98.03
2017-10-09T04:43:55.082Z,98.41
2017-10-09T04:45:16.008Z,98.13
2017-10-09T04:45:55.096Z,98.60
2017-10-09T04:46:54.963Z,98.60
2017-10-09T04:47:55.008Z,99.46
2017-10-09T04:48:54.909Z,99.37
2017-10-09T04:49:54.920Z,98.89
2017-10-09T04:51:15.862Z,99.08
2017-10-09T04:51:54.939Z,98.89
2017-10-09T04:52:54.809Z,98.70
2017-10-09T04:53:54.844Z,98.89
2017-10-09T04:54:54.751Z,98.89
2017-10-09T04:55:54.759Z,99.27
2017-10-09T04:57:15.700Z,99.55
2017-10-09T04:57:54.768Z,98.70
2017-10-09T04:58:54.648Z,99.37
2017-10-09T04:59:54.685Z,98.89
2017-10-09T05:00:54.594Z,99.08
2017-10-09T05:01:54.594Z,99.27
2017-10-09T05:03:15.543Z,99.27
2017-10-09T05:03:54.643Z,99.37
2017-10-09T05:04:54.492Z,99.37
2017-10-09T05:05:54.515Z,99.46
2017-10-09T05:06:54.448Z,99.18
2017-10-09T05:07:54.429Z,99.27
2017-10-09T05:09:15.388Z,99.46
2017-10-09T05:09:54.443Z,99.55
2017-10-09T05:10:54.337Z,99.08
2017-10-09T05:11:54.357Z,99.84
2017-10-09T05:12:54.282Z,99.75
2017-10-09T05:13:54.370Z,98.99
2017-10-09T05:15:15.237Z,98.99
2017-10-09T05:15:54.282Z,99.65
2017-10-09T05:16:54.179Z,99.55
2017-10-09T05:17:54.190Z,99.18
2017-10-09T05:18:54.132Z,99.65
2017-10-09T05:19:54.210Z,99.84
2017-10-09T05:21:15.155Z,99.99
2017-10-09T05:21:54.117Z,99.84
2017-10-09T05:22:54.024Z,99.75
2017-10-09T05:23:54.027Z,99.94
2017-10-09T05:24:53.978Z,99.99
2017-10-09T05:25:54.043Z,99.99
2017-10-09T05:27:14.921Z,99.99
2017-10-09T05:27:53.976Z,99.99
2017-10-09T05:28:53.870Z,99.99
2017-10-09T05:29:53.879Z,99.99
2017-10-09T05:30:53.822Z,99.99
2017-10-09T05:31:53.884Z,99.99
2017-10-09T05:33:14.773Z,99.84
2017-10-09T05:33:53.804Z,99.99
2017-10-09T05:34:53.718Z,99.99
2017-10-09T05:35:53.704Z,99.99
2017-10-09T05:36:53.662Z,99.84
2017-10-09T05:37:53.716Z,99.94
2017-10-09T05:39:14.625Z,99.99
2017-10-09T05:39:53.636Z,99.99
2017-10-09T05:40:53.571Z,99.99
2017-10-09T05:41:53.643Z,99.99
2017-10-09T05:42:53.508Z,99.99
2017-10-09T05:43:53.552Z,99.99
2017-10-09T05:45:14.462Z,99.99
2017-10-09T05:45:53.463Z,99.99
2017-10-09T05:46:53.399Z,99.99
2017-10-09T05:47:53.478Z,99.99
2017-10-09T05:48:53.369Z,99.99
2017-10-09T05:49:53.387Z,99.99
2017-10-09T05:51:14.301Z,99.99
2017-10-09T05:51:53.302Z,99.99
2017-10-09T05:52:53.251Z,99.99
2017-10-09T05:53:53.314Z,99.99
2017-10-09T05:54:53.200Z,99.99
2017-10-09T05:55:53.252Z,99.99
2017-10-09T05:57:14.145Z,99.99
2017-10-09T05:57:53.135Z,99.99
2017-10-09T05:58:53.105Z,99.99
2017-10-09T05:59:53.162Z,99.99
2017-10-09T06:00:53.038Z,99.99
2017-10-09T06:01:53.074Z,99.99
2017-10-09T06:03:13.985Z,99.99
2017-10-09T06:03:52.974Z,99.99
2017-10-09T06:04:52.938Z,99.99
2017-10-09T06:05:52.989Z,99.99
2017-10-09T06:06:52.881Z,99.99
2017-10-09T06:07:52.908Z,99.99
2017-10-09T06:09:13.848Z,99.99
2017-10-09T06:09:52.922Z,99.99
2017-10-09T06:10:52.787Z,99.99
2017-10-09T06:11:52.825Z,99.99
2017-10-09T06:12:52.728Z,99.99
2017-10-09T06:13:52.737Z,99.99
2017-10-09T06:15:13.671Z,99.99
2017-10-09T06:15:52.747Z,99.99
2017-10-09T06:16:52.625Z,99.99
2017-10-09T06:17:52.663Z,99.99
2017-10-09T06:18:52.581Z,99.99
2017-10-09T06:19:52.576Z,99.99
2017-10-09T06:21:13.521Z,99.99
2017-10-09T06:21:52.586Z,99.99
2017-10-09T06:22:52.473Z,99.99
2017-10-09T06:23:52.497Z,99.99
2017-10-09T06:24:52.453Z,99.99
2017-10-09T06:25:52.412Z,99.99
2017-10-09T06:27:13.369Z,99.99
2017-10-09T06:27:52.421Z,99.99
2017-10-09T06:28:52.337Z,99.99
2017-10-09T06:29:52.333Z,99.99
2017-10-09T06:30:52.268Z,99.99
2017-10-09T06:31:52.237Z,99.99
2017-10-09T06:33:13.353Z,99.99
2017-10-09T06:33:52.195Z,99.99
2017-10-09T06:34:52.158Z,99.99
2017-10-09T06:35:52.280Z,99.99
2017-10-09T06:36:52.178Z,99.99
2017-10-09T06:37:52.081Z,99.99
2017-10-09T06:39:13.186Z,99.99
2017-10-09T06:39:52.031Z,99.99
2017-10-09T06:40:52.106Z,99.99
2017-10-09T06:41:51.977Z,99.99
2017-10-09T06:42:52.019Z,99.99
2017-10-09T06:43:51.923Z,99.99
2017-10-09T06:45:13.023Z,99.99
2017-10-09T06:45:51.880Z,99.99
2017-10-09T06:46:51.851Z,99.99
2017-10-09T06:47:51.953Z,99.99
2017-10-09T06:48:51.797Z,99.99
2017-10-09T06:49:51.863Z,99.99
2017-10-09T06:51:12.743Z,99.99
2017-10-09T06:51:51.876Z,99.99
2017-10-09T06:52:51.692Z,99.99
2017-10-09T06:53:51.788Z,99.99
2017-10-09T06:54:51.643Z,99.99
2017-10-09T06:55:51.698Z,99.99
2017-10-09T06:57:12.591Z,99.99
2017-10-09T06:57:51.709Z,99.99
2017-10-09T06:58:51.547Z,99.99
2017-10-09T06:59:51.623Z,99.99
2017-10-09T07:00:51.504Z,99.99
2017-10-09T07:01:51.534Z,99.99
2017-10-09T07:03:12.441Z,99.99
2017-10-09T07:03:51.548Z,99.99
2017-10-09T07:04:51.392Z,99.99
2017-10-09T07:05:51.457Z,99.99
2017-10-09T07:06:51.345Z,99.99
2017-10-09T07:07:51.473Z,99.99
2017-10-09T07:09:12.286Z,99.99
2017-10-09T07:09:51.384Z,99.99
2017-10-09T07:10:51.242Z,99.99
2017-10-09T07:11:51.294Z,99.99
2017-10-09T07:12:51.182Z,99.99
2017-10-09T07:13:51.310Z,99.99
2017-10-09T07:15:12.140Z,99.99
2017-10-09T07:15:51.218Z,99.99
2017-10-09T07:16:51.093Z,99.99
2017-10-09T07:17:51.233Z,99.99
2017-10-09T07:18:51.034Z,99.99
2017-10-09T07:19:51.143Z,99.99
2017-10-09T07:21:11.985Z,99.99
2017-10-09T07:21:51.053Z,99.99
2017-10-09T07:22:50.934Z,99.99
2017-10-09T07:23:51.072Z,99.99
2017-10-09T07:24:50.883Z,99.99
2017-10-09T07:25:50.985Z,99.99
2017-10-09T07:27:11.836Z,99.99
2017-10-09T07:27:50.891Z,99.99
2017-10-09T07:28:50.781Z,99.99
2017-10-09T07:29:50.906Z,99.99
2017-10-09T07:30:50.734Z,99.99
2017-10-09T07:31:50.820Z,99.99
2017-10-09T07:33:11.678Z,99.99
2017-10-09T07:33:50.827Z,99.99
2017-10-09T07:34:50.627Z,99.99
2017-10-09T07:35:50.640Z,99.99
2017-10-09T07:36:50.576Z,99.99
2017-10-09T07:37:50.661Z,99.99
2017-10-09T07:39:11.552Z,99.99
2017-10-09T07:39:50.508Z,99.99
2017-10-09T07:40:50.480Z,99.99
2017-10-09T07:41:50.476Z,99.99
2017-10-09T07:42:50.487Z,99.99
2017-10-09T07:43:50.404Z,99.99
2017-10-09T07:45:11.492Z,99.99
2017-10-09T07:45:50.351Z,99.99
2017-10-09T07:46:50.412Z,99.99
2017-10-09T07:47:50.303Z,99.99
2017-10-09T07:48:50.276Z,99.99
2017-10-09T07:49:50.329Z,99.99
2017-10-09T07:51:11.231Z,99.99
2017-10-09T07:51:50.249Z,99.99
2017-10-09T07:52:50.177Z,99.99
2017-10-09T07:53:50.278Z,99.99
2017-10-09T07:54:50.124Z,99.99
2017-10-09T07:55:50.169Z,99.99
2017-10-09T07:57:11.076Z,99.99
2017-10-09T07:57:50.080Z,99.99
2017-10-09T07:58:50.024Z,99.99
2017-10-09T07:59:50.105Z,99.99
2017-10-09T08:00:49.972Z,99.99
2017-10-09T08:01:50.005Z,99.99
2017-10-09T08:03:10.928Z,99.99
2017-10-09T08:03:50.018Z,99.99
2017-10-09T08:04:49.880Z,99.99
2017-10-09T08:05:49.930Z,99.99
2017-10-09T08:06:49.848Z,99.99
2017-10-09T08:07:49.862Z,99.99
2017-10-09T08:09:10.777Z,99.99
2017-10-09T08:09:49.857Z,99.99
2017-10-09T08:10:49.728Z,99.99
2017-10-09T08:11:49.766Z,99.99
2017-10-09T08:12:49.677Z,99.99
2017-10-09T08:13:49.678Z,99.99
2017-10-09T08:15:10.634Z,99.99
2017-10-09T08:15:49.690Z,99.99
2017-10-09T08:16:49.577Z,99.99
2017-10-09T08:17:49.607Z,99.90
2017-10-09T08:18:49.527Z,99.13
2017-10-09T08:19:49.619Z,99.08
2017-10-09T08:21:10.474Z,97.85
2017-10-09T08:21:49.532Z,98.42
2017-10-09T08:22:49.432Z,98.71
2017-10-09T08:23:49.440Z,98.71
2017-10-09T08:24:49.384Z,97.99
2017-10-09T08:25:49.454Z,98.52
2017-10-09T08:27:10.325Z,98.71
2017-10-09T08:27:49.363Z,98.42
2017-10-09T08:28:49.280Z,98.32
2017-10-09T08:29:49.275Z,99.66
2017-10-09T08:30:49.229Z,98.52
2017-10-09T08:31:49.289Z,98.03
2017-10-09T08:33:10.180Z,98.42
2017-10-09T08:33:49.199Z,97.75
2017-10-09T08:34:49.134Z,98.03
2017-10-09T08:35:49.214Z,98.47
2017-10-09T08:36:49.089Z,99.04
2017-10-09T08:37:49.122Z,98.18
2017-10-09T08:39:10.033Z,98.47
2017-10-09T08:39:49.045Z,98.80
2017-10-09T08:40:48.985Z,99.18
2017-10-09T08:41:49.059Z,98.47
2017-10-09T08:42:48.936Z,98.99
2017-10-09T08:43:48.981Z,98.90
2017-10-09T08:45:09.890Z,98.61
2017-10-09T08:45:48.879Z,98.71
2017-10-09T08:46:48.840Z,99.23
2017-10-09T08:47:48.883Z,99.71
2017-10-09T08:48:48.787Z,99.57
2017-10-09T08:49:48.824Z,99.52
2017-10-09T08:51:09.778Z,99.61
2017-10-09T08:51:48.817Z,99.85
2017-10-09T08:52:48.681Z,99.66
2017-10-09T08:53:48.719Z,99.18
2017-10-09T08:54:48.643Z,99.99
2017-10-09T08:55:48.630Z,99.99
2017-10-09T08:57:09.589Z,99.99
2017-10-09T08:57:48.646Z,99.99
2017-10-09T08:58:48.539Z,99.37
2017-10-09T08:59:48.554Z,99.18
2017-10-09T09:00:48.492Z,99.85
2017-10-09T09:01:49.494Z,99.76
2017-10-09T09:03:09.441Z,99.76
2017-10-09T09:03:48.483Z,99.99
2017-10-09T09:04:48.389Z,99.99
2017-10-09T09:05:48.392Z,99.99
2017-10-09T09:06:48.341Z,99.95
2017-10-09T09:07:48.409Z,99.66
2017-10-09T09:09:09.291Z,99.95
2017-10-09T09:09:48.316Z,99.99
2017-10-09T09:10:48.248Z,99.99
2017-10-09T09:11:48.337Z,99.99
2017-10-09T09:12:48.196Z,99.99
2017-10-09T09:13:48.249Z,99.99
2017-10-09T09:15:09.148Z,99.99
2017-10-09T09:15:48.162Z,99.99
2017-10-09T09:16:48.100Z,99.99
2017-10-09T09:17:48.179Z,99.99
2017-10-09T09:18:48.050Z,99.99
2017-10-09T09:19:48.082Z,99.99
2017-10-09T09:21:09.006Z,99.99
2017-10-09T09:21:47.997Z,99.99
2017-10-09T09:22:47.954Z,99.99
2017-10-09T09:23:48.011Z,99.99
2017-10-09T09:24:47.903Z,99.99
2017-10-09T09:25:47.918Z,99.99
2017-10-09T09:27:08.848Z,99.99
2017-10-09T09:27:47.931Z,99.99
2017-10-09T09:28:47.805Z,99.99
2017-10-09T09:29:47.842Z,99.99
2017-10-09T09:30:47.764Z,99.99
2017-10-09T09:31:47.754Z,99.99
2017-10-09T09:33:08.705Z,99.99
2017-10-09T09:33:47.766Z,99.99
2017-10-09T09:34:47.654Z,99.99
2017-10-09T09:35:47.676Z,99.71
2017-10-09T09:36:47.609Z,99.43
2017-10-09T09:37:47.696Z,99.99
2017-10-09T09:39:08.560Z,99.43
2017-10-09T09:39:47.604Z,99.99
2017-10-09T09:40:47.512Z,99.99
2017-10-09T09:41:47.515Z,99.62
2017-10-09T09:42:47.465Z,98.47
2017-10-09T09:43:47.530Z,99.62
2017-10-09T09:45:08.417Z,99.80
2017-10-09T09:45:47.440Z,99.99
2017-10-09T09:46:47.363Z,99.80
2017-10-09T09:47:48.374Z,99.43
2017-10-09T09:48:47.321Z,99.23
2017-10-09T09:49:47.403Z,99.52
2017-10-09T09:51:08.276Z,99.23
2017-10-09T09:51:47.280Z,98.75
2017-10-09T09:52:47.429Z,98.57
2017-10-09T09:53:47.292Z,98.23
2017-10-09T09:54:47.182Z,98.80
2017-10-09T09:55:47.155Z,98.52
2017-10-09T09:57:08.201Z,98.71
2017-10-09T09:57:47.102Z,98.42
2017-10-09T09:58:47.122Z,98.80
2017-10-09T09:59:47.066Z,98.80
2017-10-09T10:00:47.158Z,98.23
2017-10-09T10:01:46.998Z,98.33
2017-10-09T10:03:08.038Z,97.94
2017-10-09T10:03:46.955Z,98.04
2017-10-09T10:04:46.958Z,98.23
2017-10-09T10:05:46.902Z,97.08
2017-10-09T10:06:46.975Z,97.90
2017-10-09T10:07:46.859Z,97.66
2017-10-09T10:09:07.878Z,98.13
2017-10-09T10:09:46.812Z,97.75
2017-10-09T10:10:46.794Z,97.75
2017-10-09T10:11:46.757Z,97.75
2017-10-09T10:12:46.808Z,98.23
2017-10-09T10:13:46.714Z,98.23
2017-10-09T10:15:07.711Z,98.42
2017-10-09T10:15:46.663Z,98.04
2017-10-09T10:16:46.645Z,97.13
2017-10-09T10:17:46.638Z,98.18
2017-10-09T10:18:46.596Z,97.52
2017-10-09T10:19:46.572Z,96.27
2017-10-09T10:21:07.545Z,96.66
2017-10-09T10:21:46.567Z,96.75
2017-10-09T10:22:46.499Z,97.80
2017-10-09T10:23:46.578Z,97.08
2017-10-09T10:24:46.454Z,97.23
2017-10-09T10:25:46.486Z,97.23
2017-10-09T10:27:07.404Z,96.94
2017-10-09T10:27:46.399Z,96.84
2017-10-09T10:28:46.360Z,96.75
2017-10-09T10:29:46.412Z,95.98
2017-10-09T10:30:46.309Z,95.61
2017-10-09T10:31:46.327Z,95.98
2017-10-09T10:33:07.260Z,97.04
2017-10-09T10:33:46.341Z,97.13
2017-10-09T10:34:46.215Z,96.27
2017-10-09T10:35:46.250Z,96.75
2017-10-09T10:36:46.164Z,96.75
2017-10-09T10:37:46.163Z,95.98
2017-10-09T10:39:07.117Z,95.41
2017-10-09T10:39:46.174Z,96.75
2017-10-09T10:40:46.072Z,96.56
2017-10-09T10:41:46.085Z,96.47
2017-10-09T10:42:46.023Z,96.18
2017-10-09T10:43:46.099Z,97.04
2017-10-09T10:45:06.983Z,96.51
2017-10-09T10:45:46.011Z,96.22
2017-10-09T10:46:45.927Z,94.84
2017-10-09T10:47:45.922Z,94.84
2017-10-09T10:48:45.884Z,94.84
2017-10-09T10:49:45.937Z,94.84
2017-10-09T10:51:06.856Z,95.98
2017-10-09T10:51:45.849Z,96.94
2017-10-09T10:52:45.789Z,95.41
2017-10-09T10:53:45.871Z,95.32
2017-10-09T10:54:45.743Z,95.98
2017-10-09T10:55:45.775Z,95.32
2017-10-09T10:57:06.733Z,95.65
2017-10-09T10:57:45.686Z,94.79
2017-10-09T10:58:45.651Z,94.60
2017-10-09T10:59:45.700Z,94.41
2017-10-09T11:00:45.608Z,93.93
2017-10-09T11:01:45.630Z,93.74
2017-10-09T11:03:06.556Z,95.07
2017-10-09T11:03:45.626Z,94.70
2017-10-09T11:04:45.507Z,94.36
2017-10-09T11:05:45.541Z,94.02
2017-10-09T11:06:45.465Z,93.40
2017-10-09T11:07:45.446Z,93.69
2017-10-09T11:09:06.426Z,94.26
2017-10-09T11:09:45.463Z,93.30
2017-10-09T11:10:45.364Z,93.40
2017-10-09T11:11:45.371Z,93.88
2017-10-09T11:12:45.322Z,93.21
2017-10-09T11:13:45.387Z,91.82
2017-10-09T11:15:06.270Z,89.18
2017-10-09T11:15:45.305Z,90.72
2017-10-09T11:16:45.230Z,90.62
2017-10-09T11:17:45.311Z,88.51
2017-10-09T11:18:45.198Z,88.80
2017-10-09T11:19:45.228Z,89.18
2017-10-09T11:21:06.146Z,88.70
2017-10-09T11:21:45.114Z,88.94
2017-10-09T11:22:45.093Z,87.46
2017-10-09T11:23:45.155Z,88.13
2017-10-09T11:24:45.040Z,88.23
2017-10-09T11:25:45.062Z,89.37
2017-10-09T11:27:06.002Z,90.33
2017-10-09T11:27:45.077Z,89.28
2017-10-09T11:28:44.955Z,89.37
2017-10-09T11:29:44.987Z,89.09
2017-10-09T11:30:44.913Z,88.99
2017-10-09T11:31:45.002Z,89.23
2017-10-09T11:33:05.891Z,90.58
2017-10-09T11:33:44.918Z,89.72
2017-10-09T11:34:44.836Z,90.77
2017-10-09T11:35:44.923Z,91.53
2017-10-09T11:36:44.778Z,89.14
2017-10-09T11:37:44.838Z,89.62
2017-10-09T11:39:05.727Z,89.52
2017-10-09T11:39:44.750Z,90.77
2017-10-09T11:40:44.686Z,90.58
2017-10-09T11:41:44.762Z,90.19
2017-10-09T11:42:44.652Z,90.44
2017-10-09T11:43:44.671Z,91.49
2017-10-09T11:45:05.594Z,91.01
2017-10-09T11:45:44.695Z,91.39
2017-10-09T11:46:44.555Z,91.92
2017-10-09T11:47:44.597Z,91.01
2017-10-09T11:48:44.504Z,91.39
2017-10-09T11:49:44.618Z,90.72
2017-10-09T11:51:05.463Z,91.30
2017-10-09T11:51:44.532Z,91.49
2017-10-09T11:52:44.415Z,92.30
2017-10-09T11:53:44.547Z,91.44
2017-10-09T11:54:44.383Z,90.67
2017-10-09T11:55:44.461Z,89.52
2017-10-09T11:57:05.342Z,90.39
2017-10-09T11:57:44.472Z,90.67
2017-10-09T11:58:44.291Z,89.52
2017-10-09T11:59:44.373Z,90.29
2017-10-09T12:00:44.233Z,90.96
2017-10-09T12:01:44.287Z,90.67
2017-10-09T12:03:05.197Z,91.34
2017-10-09T12:03:44.306Z,91.63
2017-10-09T12:04:44.144Z,90.77
2017-10-09T12:05:44.214Z,89.72
2017-10-09T12:06:44.107Z,89.90
2017-10-09T12:07:44.222Z,90.39
2017-10-09T12:09:05.059Z,90.19
2017-10-09T12:09:44.143Z,90.72
2017-10-09T12:10:44.010Z,90.53
2017-10-09T12:11:44.162Z,89.37
2017-10-09T12:12:43.971Z,88.90
2017-10-09T12:13:44.078Z,89.28
2017-10-09T12:15:04.928Z,88.85
2017-10-09T12:15:43.985Z,88.85
2017-10-09T12:16:43.869Z,89.52
2017-10-09T12:17:43.990Z,90.19
2017-10-09T12:18:43.830Z,89.14
2017-10-09T12:19:43.904Z,89.43
2017-10-09T12:21:04.798Z,89.57
2017-10-09T12:21:43.916Z,91.67
2017-10-09T12:22:43.738Z,89.09
2017-10-09T12:23:43.824Z,90.14
2017-10-09T12:24:43.698Z,88.80
2017-10-09T12:25:43.839Z,89.76
2017-10-09T12:27:04.652Z,88.42
2017-10-09T12:27:43.754Z,88.51
2017-10-09T12:28:43.600Z,88.51
2017-10-09T12:29:43.767Z,88.09
2017-10-09T12:30:43.576Z,89.23
2017-10-09T12:31:43.679Z,89.43
2017-10-09T12:33:04.517Z,89.81
2017-10-09T12:33:43.587Z,89.33
2017-10-09T12:34:43.471Z,89.72
2017-10-09T12:35:43.604Z,89.18
2017-10-09T12:36:43.430Z,88.99
2017-10-09T12:37:43.523Z,89.09
2017-10-09T12:39:04.382Z,89.37
2017-10-09T12:39:43.530Z,90.14
2017-10-09T12:40:43.336Z,88.99
2017-10-09T12:41:43.447Z,88.51
2017-10-09T12:42:43.306Z,87.46
2017-10-09T12:43:43.457Z,87.46
2017-10-09T12:45:04.253Z,87.27
2017-10-09T12:45:43.372Z,87.74
2017-10-09T12:46:43.208Z,87.37
2017-10-09T12:47:43.387Z,87.46
2017-10-09T12:48:43.164Z,86.88
2017-10-09T12:49:43.295Z,86.41
2017-10-09T12:51:04.123Z,86.88
2017-10-09T12:51:43.306Z,86.79